Ana Sayfa
METAR-TAF:

METAR-TAF

Havaalanları :

Mount Airy/Surry County Airport

Mount Airy, Kuzey Carolina, Amerika Birleşik Devletleri

Enlem: 36-27-35N, Boylam: 080-33-11W, yükseklik: 380 m

Güncel hava durumu gözlemi

Rapor saat 06:40 UTC de 16 dakika önce yapıldı.
Sakin rüzgar
Sıcaklık 20°C
Nem 88%
Basınç 1025 hPa
Görüş mesafesi: 16.1 km
2900 ft yükseklikte çok bulutlu

METAR: KMWK 230640Z AUTO 00000KT 10SM OVC029 20/18 A3026 RMK AO2 T01970175

Saat: 02:56 (06:56 UTC)


TAF: eksik

4.000'den fazla havaalanı için hava durumu gözlemleri ve tahminleri (METAR ve TAF raporları).

Kullanılabilir istasyonlar harita üzerinde sarı ve kırmızı noktalarla gösterilir.

İstasyonun adını görmek için fareyi noktanın üzerinde gezdirin.

Sonrasında hava gözlem ve tahminlerini görmek için tıklayın.

Haritayı değiştirmek için: yaklaştırmak için siyah artı işaretli yeşil düğmeye ve uzaklaştırmak için de eksi işaretli düğmeye hızla tıklayın; bitişik haritalar için yeşil okları kullanın.


METAR-TAF: